sensor_id;sensor_type;location;lat;lon;timestamp;P1;P2;P0
64570;PMS5003;61095;52.454;16.948;2022-09-02T04:01:42;2.00;1.00;0.00
64570;PMS5003;61095;52.454;16.948;2022-09-02T04:06:41;1.00;1.00;0.00
64570;PMS5003;61095;52.454;16.948;2022-09-02T04:11:39;0.00;0.00;0.00
64570;PMS5003;61095;52.454;16.948;2022-09-02T04:16:39;1.00;0.00;0.00
64570;PMS5003;61095;52.454;16.948;2022-09-02T04:21:39;2.00;0.00;0.00
64570;PMS5003;61095;52.454;16.948;2022-09-02T04:26:38;2.67;1.67;0.00
64570;PMS5003;61095;52.454;16.948;2022-09-02T04:31:37;2.00;2.00;0.00
64570;PMS5003;61095;52.454;16.948;2022-09-02T04:36:36;2.67;2.00;0.00
64570;PMS5003;61095;52.454;16.948;2022-09-02T04:41:36;1.00;1.00;0.00
64570;PMS5003;61095;52.454;16.948;2022-09-02T04:46:35;1.33;0.33;0.00
64570;PMS5003;61095;52.454;16.948;2022-09-02T04:51:33;0.00;0.00;0.00
64570;PMS5003;61095;52.454;16.948;2022-09-02T04:56:32;0.00;0.00;0.00
64570;PMS5003;61095;52.454;16.948;2022-09-02T05:01:32;0.00;0.00;0.00
64570;PMS5003;61095;52.454;16.948;2022-09-02T05:06:32;0.00;0.00;0.00
64570;PMS5003;61095;52.454;16.948;2022-09-02T05:11:31;0.00;0.00;0.00
64570;PMS5003;61095;52.454;16.948;2022-09-02T05:16:30;0.00;0.00;0.00
64570;PMS5003;61095;52.454;16.948;2022-09-02T05:21:32;0.00;0.00;0.00
64570;PMS5003;61095;52.454;16.948;2022-09-02T05:26:31;1.00;1.00;0.00
64570;PMS5003;61095;52.454;16.948;2022-09-02T05:31:33;2.67;2.67;0.00
64570;PMS5003;61095;52.454;16.948;2022-09-02T05:36:32;2.33;1.33;0.00
64570;PMS5003;61095;52.454;16.948;2022-09-02T05:41:30;0.00;0.00;0.00
64570;PMS5003;61095;52.454;16.948;2022-09-02T05:46:29;1.00;1.00;0.00
64570;PMS5003;61095;52.454;16.948;2022-09-02T05:51:30;2.00;1.00;0.00
64570;PMS5003;61095;52.454;16.948;2022-09-02T05:56:29;1.00;1.00;0.00
64570;PMS5003;61095;52.454;16.948;2022-09-02T06:01:28;1.00;1.00;0.00
64570;PMS5003;61095;52.454;16.948;2022-09-02T06:06:27;0.00;0.00;0.00
64570;PMS5003;61095;52.454;16.948;2022-09-02T06:11:27;0.00;0.00;0.00
64570;PMS5003;61095;52.454;16.948;2022-09-02T06:16:25;0.00;0.00;0.00
64570;PMS5003;61095;52.454;16.948;2022-09-02T06:21:24;0.00;0.00;0.00
64570;PMS5003;61095;52.454;16.948;2022-09-02T06:26:23;0.00;0.00;0.00
64570;PMS5003;61095;52.454;16.948;2022-09-02T06:31:23;0.00;0.00;0.00
64570;PMS5003;61095;52.454;16.948;2022-09-02T06:36:22;0.00;0.00;0.00
64570;PMS5003;61095;52.454;16.948;2022-09-02T06:41:24;1.00;1.00;0.00
64570;PMS5003;61095;52.454;16.948;2022-09-02T06:46:26;0.67;0.67;0.00
64570;PMS5003;61095;52.454;16.948;2022-09-02T06:51:29;1.00;1.00;0.00
64570;PMS5003;61095;52.454;16.948;2022-09-02T06:56:29;2.00;2.00;0.00
64570;PMS5003;61095;52.454;16.948;2022-09-02T07:01:29;2.00;2.00;0.00
64570;PMS5003;61095;52.454;16.948;2022-09-02T07:06:31;1.00;1.00;0.00
64570;PMS5003;61095;52.454;16.948;2022-09-02T07:11:33;1.00;1.00;0.00
64570;PMS5003;61095;52.454;16.948;2022-09-02T07:16:35;0.00;0.00;0.00
64570;PMS5003;61095;52.454;16.948;2022-09-02T07:21:35;0.00;0.00;0.00
64570;PMS5003;61095;52.454;16.948;2022-09-02T07:26:34;0.00;0.00;0.00
64570;PMS5003;61095;52.454;16.948;2022-09-02T07:31:34;0.00;0.00;0.00
64570;PMS5003;61095;52.454;16.948;2022-09-02T07:36:33;0.00;0.00;0.00
64570;PMS5003;61095;52.454;16.948;2022-09-02T07:41:32;0.00;0.00;0.00
64570;PMS5003;61095;52.454;16.948;2022-09-02T07:46:31;0.00;0.00;0.00
64570;PMS5003;61095;52.454;16.948;2022-09-02T07:51:33;0.00;0.00;0.00
64570;PMS5003;61095;52.454;16.948;2022-09-02T07:56:32;0.00;0.00;0.00
64570;PMS5003;61095;52.454;16.948;2022-09-02T08:01:31;0.00;0.00;0.00
64570;PMS5003;61095;52.454;16.948;2022-09-02T08:06:31;0.00;0.00;0.00
64570;PMS5003;61095;52.454;16.948;2022-09-02T08:11:30;0.00;0.00;0.00
64570;PMS5003;61095;52.454;16.948;2022-09-02T08:16:33;0.00;0.00;0.00
64570;PMS5003;61095;52.454;16.948;2022-09-02T08:21:33;0.00;0.00;0.00
64570;PMS5003;61095;52.454;16.948;2022-09-02T08:26:32;0.00;0.00;0.00
64570;PMS5003;61095;52.454;16.948;2022-09-02T08:31:34;0.00;0.00;0.00
64570;PMS5003;61095;52.454;16.948;2022-09-02T08:36:35;0.00;0.00;0.00
64570;PMS5003;61095;52.454;16.948;2022-09-02T08:41:37;0.00;0.00;0.00
64570;PMS5003;61095;52.454;16.948;2022-09-02T08:46:45;0.00;0.00;0.00
64570;PMS5003;61095;52.454;16.948;2022-09-02T08:51:48;0.00;0.00;0.00
64570;PMS5003;61095;52.454;16.948;2022-09-02T08:56:49;0.00;0.00;0.00
64570;PMS5003;61095;52.454;16.948;2022-09-02T09:01:49;0.00;0.00;0.00
64570;PMS5003;61095;52.454;16.948;2022-09-02T09:07:07;0.00;0.00;0.00
64570;PMS5003;61095;52.454;16.948;2022-09-02T09:12:17;0.00;0.00;0.00
64570;PMS5003;61095;52.454;16.948;2022-09-02T09:17:30;0.00;0.00;0.00
64570;PMS5003;61095;52.454;16.948;2022-09-02T09:22:38;0.00;0.00;0.00
64570;PMS5003;61095;52.454;16.948;2022-09-02T09:27:38;0.00;0.00;0.00
64570;PMS5003;61095;52.454;16.948;2022-09-02T09:32:39;0.00;0.00;0.00
64570;PMS5003;61095;52.454;16.948;2022-09-02T09:37:42;0.00;0.00;0.00
64570;PMS5003;61095;52.454;16.948;2022-09-02T09:42:43;0.00;0.00;0.00
64570;PMS5003;61095;52.454;16.948;2022-09-02T09:47:43;0.00;0.00;0.00
64570;PMS5003;61095;52.454;16.948;2022-09-02T09:52:43;0.00;0.00;0.00
64570;PMS5003;61095;52.454;16.948;2022-09-02T09:57:44;0.00;0.00;0.00
64570;PMS5003;61095;52.454;16.948;2022-09-02T10:02:45;0.00;0.00;0.00
64570;PMS5003;61095;52.454;16.948;2022-09-02T10:07:52;0.00;0.00;0.00
64570;PMS5003;61095;52.454;16.948;2022-09-02T10:12:53;0.00;0.00;0.00
64570;PMS5003;61095;52.454;16.948;2022-09-02T10:17:59;0.00;0.00;0.00
64570;PMS5003;61095;52.454;16.948;2022-09-02T10:23:14;0.00;0.00;0.00
64570;PMS5003;61095;52.454;16.948;2022-09-02T10:28:21;0.00;0.00;0.00
64570;PMS5003;61095;52.454;16.948;2022-09-02T10:33:33;0.00;0.00;0.00
64570;PMS5003;61095;52.454;16.948;2022-09-02T10:38:39;0.00;0.00;0.00
64570;PMS5003;61095;52.454;16.948;2022-09-02T10:43:46;0.00;0.00;0.00
64570;PMS5003;61095;52.454;16.948;2022-09-02T10:49:06;0.00;0.00;0.00
64570;PMS5003;61095;52.454;16.948;2022-09-02T10:54:21;0.00;0.00;0.00
64570;PMS5003;61095;52.454;16.948;2022-09-02T10:59:34;0.00;0.00;0.00
64570;PMS5003;61095;52.454;16.948;2022-09-02T11:04:37;0.00;0.00;0.00
64570;PMS5003;61095;52.454;16.948;2022-09-02T11:09:43;0.00;0.00;0.00
64570;PMS5003;61095;52.454;16.948;2022-09-02T11:14:52;0.00;0.00;0.00
64570;PMS5003;61095;52.454;16.948;2022-09-02T11:19:58;0.00;0.00;0.00
64570;PMS5003;61095;52.454;16.948;2022-09-02T11:25:08;0.00;0.00;0.00
64570;PMS5003;61095;52.454;16.948;2022-09-02T11:30:12;0.00;0.00;0.00
64570;PMS5003;61095;52.454;16.948;2022-09-02T11:35:15;0.00;0.00;0.00
64570;PMS5003;61095;52.454;16.948;2022-09-02T11:40:17;0.00;0.00;0.00
64570;PMS5003;61095;52.454;16.948;2022-09-02T11:45:26;0.00;0.00;0.00
64570;PMS5003;61095;52.454;16.948;2022-09-02T11:50:43;0.00;0.00;0.00
64570;PMS5003;61095;52.454;16.948;2022-09-02T11:55:56;0.00;0.00;0.00
64570;PMS5003;61095;52.454;16.948;2022-09-02T12:01:00;0.00;0.00;0.00
64570;PMS5003;61095;52.454;16.948;2022-09-02T12:06:17;0.00;0.00;0.00
64570;PMS5003;61095;52.454;16.948;2022-09-02T12:11:33;0.00;0.00;0.00
64570;PMS5003;61095;52.454;16.948;2022-09-02T12:22:23;0.00;0.00;0.00
64570;PMS5003;61095;52.454;16.948;2022-09-02T12:27:36;0.00;0.00;0.00
64570;PMS5003;61095;52.454;16.948;2022-09-02T12:38:20;0.00;0.00;0.00
64570;PMS5003;61095;52.454;16.948;2022-09-02T12:43:32;0.00;0.00;0.00
64570;PMS5003;61095;52.454;16.948;2022-09-02T12:48:41;0.00;0.00;0.00
64570;PMS5003;61095;52.454;16.948;2022-09-02T12:53:48;0.00;0.00;0.00
64570;PMS5003;61095;52.454;16.948;2022-09-02T12:58:50;0.00;0.00;0.00
64570;PMS5003;61095;52.454;16.948;2022-09-02T13:03:54;0.00;0.00;0.00
64570;PMS5003;61095;52.454;16.948;2022-09-02T13:09:04;0.00;0.00;0.00
64570;PMS5003;61095;52.454;16.948;2022-09-02T13:14:19;0.00;0.00;0.00
64570;PMS5003;61095;52.454;16.948;2022-09-02T13:19:59;0.00;0.00;0.00
64570;PMS5003;61095;52.454;16.948;2022-09-02T13:30:53;0.00;0.00;0.00
64570;PMS5003;61095;52.454;16.948;2022-09-02T13:36:01;0.00;0.00;0.00
64570;PMS5003;61095;52.454;16.948;2022-09-02T13:41:01;0.00;0.00;0.00
64570;PMS5003;61095;52.454;16.948;2022-09-02T13:46:01;0.00;0.00;0.00
64570;PMS5003;61095;52.454;16.948;2022-09-02T13:51:01;0.00;0.00;0.00
64570;PMS5003;61095;52.454;16.948;2022-09-02T13:56:10;0.00;0.00;0.00
64570;PMS5003;61095;52.454;16.948;2022-09-02T14:01:22;0.00;0.00;0.00
64570;PMS5003;61095;52.454;16.948;2022-09-02T14:06:24;0.00;0.00;0.00
64570;PMS5003;61095;52.454;16.948;2022-09-02T14:11:26;0.00;0.00;0.00
64570;PMS5003;61095;52.454;16.948;2022-09-02T14:16:29;0.00;0.00;0.00
64570;PMS5003;61095;52.454;16.948;2022-09-02T14:21:29;0.00;0.00;0.00
64570;PMS5003;61095;52.454;16.948;2022-09-02T14:26:31;0.00;0.00;0.00
64570;PMS5003;61095;52.454;16.948;2022-09-02T14:31:33;0.00;0.00;0.00
64570;PMS5003;61095;52.454;16.948;2022-09-02T14:36:34;0.00;0.00;0.00
64570;PMS5003;61095;52.454;16.948;2022-09-02T14:41:34;0.00;0.00;0.00
64570;PMS5003;61095;52.454;16.948;2022-09-02T14:46:35;0.00;0.00;0.00
64570;PMS5003;61095;52.454;16.948;2022-09-02T14:51:42;0.00;0.00;0.00
64570;PMS5003;61095;52.454;16.948;2022-09-02T14:56:46;0.00;0.00;0.00
64570;PMS5003;61095;52.454;16.948;2022-09-02T15:01:48;0.00;0.00;0.00
64570;PMS5003;61095;52.454;16.948;2022-09-02T15:06:48;0.00;0.00;0.00
64570;PMS5003;61095;52.454;16.948;2022-09-02T15:11:48;0.00;0.00;0.00
64570;PMS5003;61095;52.454;16.948;2022-09-02T15:16:51;0.00;0.00;0.00
64570;PMS5003;61095;52.454;16.948;2022-09-02T15:21:51;0.00;0.00;0.00
64570;PMS5003;61095;52.454;16.948;2022-09-02T15:26:49;0.00;0.00;0.00
64570;PMS5003;61095;52.454;16.948;2022-09-02T15:31:49;0.00;0.00;0.00
64570;PMS5003;61095;52.454;16.948;2022-09-02T15:36:49;0.00;0.00;0.00
64570;PMS5003;61095;52.454;16.948;2022-09-02T15:41:51;0.00;0.00;0.00
64570;PMS5003;61095;52.454;16.948;2022-09-02T15:46:51;0.00;0.00;0.00
64570;PMS5003;61095;52.454;16.948;2022-09-02T15:51:51;0.00;0.00;0.00
64570;PMS5003;61095;52.454;16.948;2022-09-02T15:56:52;0.00;0.00;0.00
64570;PMS5003;61095;52.454;16.948;2022-09-02T16:01:53;0.00;0.00;0.00
64570;PMS5003;61095;52.454;16.948;2022-09-02T16:06:55;0.00;0.00;0.00
64570;PMS5003;61095;52.454;16.948;2022-09-02T16:11:54;0.00;0.00;0.00
64570;PMS5003;61095;52.454;16.948;2022-09-02T16:16:53;0.00;0.00;0.00
64570;PMS5003;61095;52.454;16.948;2022-09-02T16:21:53;0.00;0.00;0.00
64570;PMS5003;61095;52.454;16.948;2022-09-02T16:26:53;0.00;0.00;0.00
64570;PMS5003;61095;52.454;16.948;2022-09-02T16:31:51;0.00;0.00;0.00
64570;PMS5003;61095;52.454;16.948;2022-09-02T16:36:50;0.00;0.00;0.00
64570;PMS5003;61095;52.454;16.948;2022-09-02T16:41:49;0.00;0.00;0.00
64570;PMS5003;61095;52.454;16.948;2022-09-02T16:46:51;0.00;0.00;0.00
64570;PMS5003;61095;52.454;16.948;2022-09-02T16:51:50;0.00;0.00;0.00
64570;PMS5003;61095;52.454;16.948;2022-09-02T16:56:49;0.00;0.00;0.00
64570;PMS5003;61095;52.454;16.948;2022-09-02T17:01:47;0.00;0.00;0.00
64570;PMS5003;61095;52.454;16.948;2022-09-02T17:06:47;0.00;0.00;0.00
64570;PMS5003;61095;52.454;16.948;2022-09-02T17:11:45;0.00;0.00;0.00
64570;PMS5003;61095;52.454;16.948;2022-09-02T17:16:45;0.00;0.00;0.00
64570;PMS5003;61095;52.454;16.948;2022-09-02T17:21:48;0.00;0.00;0.00
64570;PMS5003;61095;52.454;16.948;2022-09-02T17:26:48;0.00;0.00;0.00
64570;PMS5003;61095;52.454;16.948;2022-09-02T17:31:48;0.00;0.00;0.00
64570;PMS5003;61095;52.454;16.948;2022-09-02T17:36:48;0.00;0.00;0.00
64570;PMS5003;61095;52.454;16.948;2022-09-02T17:41:47;0.00;0.00;0.00
64570;PMS5003;61095;52.454;16.948;2022-09-02T17:46:51;0.00;0.00;0.00
64570;PMS5003;61095;52.454;16.948;2022-09-02T17:51:53;0.00;0.00;0.00
64570;PMS5003;61095;52.454;16.948;2022-09-02T17:56:57;0.00;0.00;0.00
64570;PMS5003;61095;52.454;16.948;2022-09-02T18:02:16;0.00;0.00;0.00
64570;PMS5003;61095;52.454;16.948;2022-09-02T18:07:38;0.00;0.00;0.00
64570;PMS5003;61095;52.454;16.948;2022-09-02T18:12:42;0.00;0.00;0.00
64570;PMS5003;61095;52.454;16.948;2022-09-02T18:17:42;0.00;0.00;0.00
64570;PMS5003;61095;52.454;16.948;2022-09-02T18:28:23;0.00;0.00;0.00
64570;PMS5003;61095;52.454;16.948;2022-09-02T18:39:13;0.00;0.00;0.00
64570;PMS5003;61095;52.454;16.948;2022-09-02T18:44:25;0.00;0.00;0.00
64570;PMS5003;61095;52.454;16.948;2022-09-02T18:49:34;0.00;0.00;0.00
64570;PMS5003;61095;52.454;16.948;2022-09-02T18:54:43;0.00;0.00;0.00
64570;PMS5003;61095;52.454;16.948;2022-09-02T18:59:48;0.00;0.00;0.00
64570;PMS5003;61095;52.454;16.948;2022-09-02T19:04:51;0.00;0.00;0.00
64570;PMS5003;61095;52.454;16.948;2022-09-02T19:09:52;0.00;0.00;0.00
64570;PMS5003;61095;52.454;16.948;2022-09-02T19:14:52;0.00;0.00;0.00
64570;PMS5003;61095;52.454;16.948;2022-09-02T19:19:50;0.00;0.00;0.00
64570;PMS5003;61095;52.454;16.948;2022-09-02T19:24:49;0.00;0.00;0.00
64570;PMS5003;61095;52.454;16.948;2022-09-02T19:29:54;0.00;0.00;0.00
64570;PMS5003;61095;52.454;16.948;2022-09-02T19:35:00;0.00;0.00;0.00
64570;PMS5003;61095;52.454;16.948;2022-09-02T19:40:06;0.00;0.00;0.00
64570;PMS5003;61095;52.454;16.948;2022-09-02T19:45:06;0.00;0.00;0.00
64570;PMS5003;61095;52.454;16.948;2022-09-02T19:50:05;0.00;0.00;0.00
64570;PMS5003;61095;52.454;16.948;2022-09-02T19:55:06;0.00;0.00;0.00
64570;PMS5003;61095;52.454;16.948;2022-09-02T20:00:07;0.00;0.00;0.00
64570;PMS5003;61095;52.454;16.948;2022-09-02T20:05:07;0.00;0.00;0.00
64570;PMS5003;61095;52.454;16.948;2022-09-02T20:10:08;0.00;0.00;0.00
64570;PMS5003;61095;52.454;16.948;2022-09-02T20:15:08;0.00;0.00;0.00
64570;PMS5003;61095;52.454;16.948;2022-09-02T20:20:07;0.00;0.00;0.00
64570;PMS5003;61095;52.454;16.948;2022-09-02T20:25:13;0.00;0.00;0.00
64570;PMS5003;61095;52.454;16.948;2022-09-02T20:30:12;0.00;0.00;0.00
64570;PMS5003;61095;52.454;16.948;2022-09-02T20:40:44;0.00;0.00;0.00
64570;PMS5003;61095;52.454;16.948;2022-09-02T20:45:53;0.00;0.00;0.00
64570;PMS5003;61095;52.454;16.948;2022-09-02T20:50:57;0.00;0.00;0.00
64570;PMS5003;61095;52.454;16.948;2022-09-02T20:56:03;0.00;0.00;0.00
64570;PMS5003;61095;52.454;16.948;2022-09-02T21:01:11;0.00;0.00;0.00
64570;PMS5003;61095;52.454;16.948;2022-09-02T21:06:14;0.00;0.00;0.00
64570;PMS5003;61095;52.454;16.948;2022-09-02T21:11:15;0.00;0.00;0.00
64570;PMS5003;61095;52.454;16.948;2022-09-02T21:16:16;0.00;0.00;0.00
64570;PMS5003;61095;52.454;16.948;2022-09-02T21:21:19;0.00;0.00;0.00
64570;PMS5003;61095;52.454;16.948;2022-09-02T21:26:28;0.00;0.00;0.00
64570;PMS5003;61095;52.454;16.948;2022-09-02T21:31:36;0.00;0.00;0.00
64570;PMS5003;61095;52.454;16.948;2022-09-02T21:36:39;0.00;0.00;0.00
64570;PMS5003;61095;52.454;16.948;2022-09-02T21:41:40;0.67;0.67;0.00
64570;PMS5003;61095;52.454;16.948;2022-09-02T21:46:46;3.00;3.00;0.00
64570;PMS5003;61095;52.454;16.948;2022-09-02T21:51:58;2.00;2.00;0.00
64570;PMS5003;61095;52.454;16.948;2022-09-02T21:57:12;1.00;1.00;0.00
64570;PMS5003;61095;52.454;16.948;2022-09-02T22:02:24;2.00;2.00;0.00
64570;PMS5003;61095;52.454;16.948;2022-09-02T22:07:32;1.00;1.00;0.00
64570;PMS5003;61095;52.454;16.948;2022-09-02T22:12:36;1.00;1.00;0.00
64570;PMS5003;61095;52.454;16.948;2022-09-02T22:17:41;0.00;0.00;0.00
64570;PMS5003;61095;52.454;16.948;2022-09-02T22:22:45;1.00;1.00;0.00
64570;PMS5003;61095;52.454;16.948;2022-09-02T22:27:53;1.00;1.00;0.00
64570;PMS5003;61095;52.454;16.948;2022-09-02T22:32:56;3.00;3.00;0.00
64570;PMS5003;61095;52.454;16.948;2022-09-02T22:38:03;2.00;2.00;0.00
64570;PMS5003;61095;52.454;16.948;2022-09-02T22:43:09;3.00;3.00;0.00
64570;PMS5003;61095;52.454;16.948;2022-09-02T22:48:12;4.00;3.33;0.33
64570;PMS5003;61095;52.454;16.948;2022-09-02T22:53:32;3.33;2.67;1.00
64570;PMS5003;61095;52.454;16.948;2022-09-02T22:58:39;2.00;2.00;0.00
64570;PMS5003;61095;52.454;16.948;2022-09-02T23:03:51;3.00;2.33;0.00
64570;PMS5003;61095;52.454;16.948;2022-09-02T23:09:01;2.00;2.00;0.00
64570;PMS5003;61095;52.454;16.948;2022-09-02T23:14:10;1.67;1.00;0.00
64570;PMS5003;61095;52.454;16.948;2022-09-02T23:19:20;4.00;4.00;0.00
64570;PMS5003;61095;52.454;16.948;2022-09-02T23:24:32;2.00;2.00;0.00
64570;PMS5003;61095;52.454;16.948;2022-09-02T23:29:42;2.00;2.00;0.00
64570;PMS5003;61095;52.454;16.948;2022-09-02T23:34:49;4.00;4.00;0.00
64570;PMS5003;61095;52.454;16.948;2022-09-02T23:40:02;4.00;4.00;1.00
64570;PMS5003;61095;52.454;16.948;2022-09-02T23:45:17;3.00;3.00;1.00
64570;PMS5003;61095;52.454;16.948;2022-09-02T23:50:20;1.67;1.67;0.00
64570;PMS5003;61095;52.454;16.948;2022-09-02T23:55:32;1.00;1.00;0.00
